sensor_id;sensor_type;location;lat;lon;timestamp;pressure;altitude;pressure_sealevel;temperature;humidity
39823;BME280;25499;53.958;10.970;2023-03-16T07:43:59;101899.75;;;2.24;100.00
39823;BME280;25499;53.958;10.970;2023-03-16T07:46:27;101895.66;;;2.28;100.00
39823;BME280;25499;53.958;10.970;2023-03-16T07:48:52;101893.44;;;2.36;100.00
39823;BME280;25499;53.958;10.970;2023-03-16T07:51:17;101892.44;;;2.50;100.00
39823;BME280;25499;53.958;10.970;2023-03-16T07:53:43;101886.81;;;2.41;99.36
39823;BME280;25499;53.958;10.970;2023-03-16T07:56:08;101879.06;;;2.39;96.66
39823;BME280;25499;53.958;10.970;2023-03-16T07:58:34;101870.09;;;2.31;94.54
39823;BME280;25499;53.958;10.970;2023-03-16T08:01:00;101861.13;;;2.41;93.62
39823;BME280;25499;53.958;10.970;2023-03-16T08:03:27;101868.53;;;2.53;93.16
39823;BME280;25499;53.958;10.970;2023-03-16T08:05:53;101854.22;;;2.58;91.66
39823;BME280;25499;53.958;10.970;2023-03-16T08:08:20;101847.50;;;2.60;90.85
39823;BME280;25499;53.958;10.970;2023-03-16T08:10:51;101833.97;;;2.64;89.89
39823;BME280;25499;53.958;10.970;2023-03-16T08:13:18;101847.91;;;2.69;89.45
39823;BME280;25499;53.958;10.970;2023-03-16T08:15:48;101841.91;;;2.69;88.90
39823;BME280;25499;53.958;10.970;2023-03-16T08:18:14;101844.38;;;2.85;88.59
39823;BME280;25499;53.958;10.970;2023-03-16T08:20:40;101835.91;;;2.70;87.82
39823;BME280;25499;53.958;10.970;2023-03-16T08:23:06;101834.41;;;2.73;86.98
39823;BME280;25499;53.958;10.970;2023-03-16T08:25:32;101842.44;;;2.81;86.62
39823;BME280;25499;53.958;10.970;2023-03-16T08:27:57;101853.19;;;2.90;87.10
39823;BME280;25499;53.958;10.970;2023-03-16T08:30:23;101844.47;;;3.06;86.60
39823;BME280;25499;53.958;10.970;2023-03-16T08:32:50;101852.00;;;3.21;86.80
39823;BME280;25499;53.958;10.970;2023-03-16T08:35:16;101848.44;;;3.19;86.66
39823;BME280;25499;53.958;10.970;2023-03-16T08:37:42;101856.16;;;3.19;86.71
39823;BME280;25499;53.958;10.970;2023-03-16T08:40:08;101841.41;;;3.15;85.40
39823;BME280;25499;53.958;10.970;2023-03-16T08:42:41;101846.56;;;3.15;85.35
39823;BME280;25499;53.958;10.970;2023-03-16T08:45:09;101854.56;;;3.21;85.86
39823;BME280;25499;53.958;10.970;2023-03-16T08:47:35;101858.75;;;3.39;85.90
39823;BME280;25499;53.958;10.970;2023-03-16T08:50:03;101847.97;;;3.47;84.85
39823;BME280;25499;53.958;10.970;2023-03-16T08:52:30;101835.53;;;3.57;84.24
39823;BME280;25499;53.958;10.970;2023-03-16T08:54:56;101847.63;;;3.79;84.23
39823;BME280;25499;53.958;10.970;2023-03-16T08:57:21;101842.97;;;3.91;83.84
39823;BME280;25499;53.958;10.970;2023-03-16T08:59:47;101828.09;;;4.05;82.65
39823;BME280;25499;53.958;10.970;2023-03-16T09:02:13;101814.75;;;4.15;82.15
39823;BME280;25499;53.958;10.970;2023-03-16T09:04:39;101826.31;;;4.25;81.63
39823;BME280;25499;53.958;10.970;2023-03-16T09:07:04;101835.00;;;4.27;82.21
39823;BME280;25499;53.958;10.970;2023-03-16T09:09:30;101818.78;;;4.29;81.43
39823;BME280;25499;53.958;10.970;2023-03-16T09:11:57;101834.00;;;4.46;81.85
39823;BME280;25499;53.958;10.970;2023-03-16T09:14:23;101854.38;;;4.83;82.28
39823;BME280;25499;53.958;10.970;2023-03-16T09:16:49;101825.56;;;4.95;80.57
39823;BME280;25499;53.958;10.970;2023-03-16T09:19:15;101789.63;;;5.00;79.10
39823;BME280;25499;53.958;10.970;2023-03-16T09:21:41;101777.06;;;5.09;77.74
39823;BME280;25499;53.958;10.970;2023-03-16T09:24:06;101781.50;;;5.13;77.76
39823;BME280;25499;53.958;10.970;2023-03-16T09:26:34;101773.94;;;5.18;76.85
39823;BME280;25499;53.958;10.970;2023-03-16T09:28:59;101759.19;;;5.15;75.51
39823;BME280;25499;53.958;10.970;2023-03-16T09:31:25;101775.56;;;5.40;75.82
39823;BME280;25499;53.958;10.970;2023-03-16T09:33:50;101753.19;;;5.40;75.05
39823;BME280;25499;53.958;10.970;2023-03-16T09:36:16;101721.97;;;5.34;73.92
39823;BME280;25499;53.958;10.970;2023-03-16T09:38:42;101725.13;;;5.51;72.84
39823;BME280;25499;53.958;10.970;2023-03-16T09:41:30;101744.31;;;5.85;72.78
39823;BME280;25499;53.958;10.970;2023-03-16T09:47:03;101687.78;;;5.67;70.48
39823;BME280;25499;53.958;10.970;2023-03-16T09:49:42;101726.72;;;5.73;71.30
39823;BME280;25499;53.958;10.970;2023-03-16T09:52:32;101700.59;;;5.64;70.35
39823;BME280;25499;53.958;10.970;2023-03-16T09:57:52;101707.66;;;5.70;70.48
39823;BME280;25499;53.958;10.970;2023-03-16T10:00:24;101697.16;;;5.64;69.71
39823;BME280;25499;53.958;10.970;2023-03-16T10:05:36;101708.47;;;5.67;69.85
39823;BME280;25499;53.958;10.970;2023-03-16T10:08:21;101689.44;;;5.65;69.32
39823;BME280;25499;53.958;10.970;2023-03-16T10:11:04;101686.19;;;5.71;68.89
39823;BME280;25499;53.958;10.970;2023-03-16T10:13:47;101676.88;;;5.76;68.41
39823;BME280;25499;53.958;10.970;2023-03-16T10:19:07;101669.06;;;6.02;67.29
39823;BME280;25499;53.958;10.970;2023-03-16T10:21:38;101693.78;;;6.51;67.11
39823;BME280;25499;53.958;10.970;2023-03-16T10:24:44;101684.97;;;7.06;66.56
39823;BME280;25499;53.958;10.970;2023-03-16T10:27:02;101651.53;;;7.89;63.46
39823;BME280;25499;53.958;10.970;2023-03-16T10:29:34;101559.00;;;8.27;60.40
39823;BME280;25499;53.958;10.970;2023-03-16T10:32:14;101561.31;;;8.57;58.68
39823;BME280;25499;53.958;10.970;2023-03-16T10:35:02;101524.25;;;8.65;57.75
39823;BME280;25499;53.958;10.970;2023-03-16T10:37:31;101468.94;;;8.20;55.93
39823;BME280;25499;53.958;10.970;2023-03-16T10:39:57;101503.38;;;8.13;56.25
39823;BME280;25499;53.958;10.970;2023-03-16T10:42:25;101475.38;;;7.52;56.04
39823;BME280;25499;53.958;10.970;2023-03-16T10:44:56;101584.78;;;7.78;58.67
39823;BME280;25499;53.958;10.970;2023-03-16T10:47:24;101581.44;;;7.82;58.45
39823;BME280;25499;53.958;10.970;2023-03-16T10:49:55;101574.94;;;8.03;58.98
39823;BME280;25499;53.958;10.970;2023-03-16T10:52:38;101544.56;;;7.97;57.63
39823;BME280;25499;53.958;10.970;2023-03-16T10:55:19;101493.25;;;7.81;56.39
39823;BME280;25499;53.958;10.970;2023-03-16T10:57:53;101459.41;;;7.73;55.26
39823;BME280;25499;53.958;10.970;2023-03-16T11:00:26;101481.66;;;7.63;55.57
39823;BME280;25499;53.958;10.970;2023-03-16T11:02:54;101464.66;;;7.35;55.30
39823;BME280;25499;53.958;10.970;2023-03-16T11:08:14;101417.06;;;7.30;53.21
39823;BME280;25499;53.958;10.970;2023-03-16T11:10:40;101479.50;;;7.42;54.63
39823;BME280;25499;53.958;10.970;2023-03-16T11:13:19;101371.06;;;7.18;53.09
39823;BME280;25499;53.958;10.970;2023-03-16T11:15:55;101403.16;;;7.25;52.79
39823;BME280;25499;53.958;10.970;2023-03-16T11:18:29;101321.91;;;7.20;50.09
39823;BME280;25499;53.958;10.970;2023-03-16T11:20:56;101339.59;;;7.42;49.32
39823;BME280;25499;53.958;10.970;2023-03-16T11:23:31;101295.06;;;7.63;47.23
39823;BME280;25499;53.958;10.970;2023-03-16T11:26:01;101296.09;;;7.72;46.58
39823;BME280;25499;53.958;10.970;2023-03-16T11:28:39;101351.38;;;8.22;46.65
39823;BME280;25499;53.958;10.970;2023-03-16T11:31:50;101215.22;;;7.93;43.61
39823;BME280;25499;53.958;10.970;2023-03-16T11:33:56;101235.97;;;7.93;42.88
39823;BME280;25499;53.958;10.970;2023-03-16T11:36:37;101250.59;;;7.89;42.96
39823;BME280;25499;53.958;10.970;2023-03-16T11:39:18;101276.03;;;8.13;43.49
39823;BME280;25499;53.958;10.970;2023-03-16T11:44:57;101183.47;;;8.09;40.88
39823;BME280;25499;53.958;10.970;2023-03-16T11:50:42;101135.09;;;8.11;40.00
39823;BME280;25499;53.958;10.970;2023-03-16T11:53:30;101192.19;;;8.16;39.44
39823;BME280;25499;53.958;10.970;2023-03-16T11:56:33;101232.00;;;8.19;41.16
39823;BME280;25499;53.958;10.970;2023-03-16T12:15:24;101276.91;;;8.75;41.67
39823;BME280;25499;53.958;10.970;2023-03-16T12:18:25;101224.16;;;8.76;41.35
39823;BME280;25499;53.958;10.970;2023-03-16T12:21:01;101162.59;;;8.64;40.38
39823;BME280;25499;53.958;10.970;2023-03-16T12:23:41;101196.38;;;8.67;40.29
39823;BME280;25499;53.958;10.970;2023-03-16T12:26:07;101141.63;;;8.46;39.48
39823;BME280;25499;53.958;10.970;2023-03-16T12:28:33;101154.34;;;8.29;39.58
39823;BME280;25499;53.958;10.970;2023-03-16T12:36:01;101291.81;;;8.27;42.63
39823;BME280;25499;53.958;10.970;2023-03-16T12:44:14;101278.03;;;8.33;43.56
39823;BME280;25499;53.958;10.970;2023-03-16T12:49:46;101298.63;;;8.20;44.45
39823;BME280;25499;53.958;10.970;2023-03-16T12:52:13;101309.97;;;8.29;45.35
39823;BME280;25499;53.958;10.970;2023-03-16T12:54:53;101243.13;;;8.11;43.73
39823;BME280;25499;53.958;10.970;2023-03-16T12:57:23;101257.06;;;8.17;43.92
39823;BME280;25499;53.958;10.970;2023-03-16T12:59:56;101272.72;;;8.22;44.29
39823;BME280;25499;53.958;10.970;2023-03-16T13:02:31;101250.47;;;8.39;43.28
39823;BME280;25499;53.958;10.970;2023-03-16T13:05:01;101225.69;;;8.62;42.84
39823;BME280;25499;53.958;10.970;2023-03-16T13:07:32;101292.75;;;8.95;44.01
39823;BME280;25499;53.958;10.970;2023-03-16T13:10:09;101270.25;;;8.95;43.92
39823;BME280;25499;53.958;10.970;2023-03-16T13:12:38;101278.91;;;8.98;44.39
39823;BME280;25499;53.958;10.970;2023-03-16T13:15:25;101225.75;;;8.65;43.45
39823;BME280;25499;53.958;10.970;2023-03-16T13:23:23;101152.47;;;8.89;41.09
39823;BME280;25499;53.958;10.970;2023-03-16T13:26:15;101068.22;;;8.57;39.68
39823;BME280;25499;53.958;10.970;2023-03-16T13:28:44;101043.69;;;8.31;38.57
39823;BME280;25499;53.958;10.970;2023-03-16T13:31:35;101097.31;;;8.32;39.74
39823;BME280;25499;53.958;10.970;2023-03-16T13:34:02;101091.19;;;8.25;40.42
39823;BME280;25499;53.958;10.970;2023-03-16T13:36:31;101088.63;;;8.27;40.14
39823;BME280;25499;53.958;10.970;2023-03-16T13:39:15;101168.72;;;8.74;41.30
39823;BME280;25499;53.958;10.970;2023-03-16T13:41:41;101130.56;;;8.64;41.48
39823;BME280;25499;53.958;10.970;2023-03-16T13:44:13;101210.56;;;8.99;42.80
39823;BME280;25499;53.958;10.970;2023-03-16T13:46:39;101155.78;;;8.77;42.39
39823;BME280;25499;53.958;10.970;2023-03-16T13:49:05;101157.66;;;8.90;42.35
39823;BME280;25499;53.958;10.970;2023-03-16T13:51:33;101121.09;;;8.66;41.09
39823;BME280;25499;53.958;10.970;2023-03-16T13:54:20;101124.50;;;8.63;42.22
39823;BME280;25499;53.958;10.970;2023-03-16T13:56:50;101096.75;;;8.56;41.56
39823;BME280;25499;53.958;10.970;2023-03-16T13:59:16;101070.69;;;8.44;40.60
39823;BME280;25499;53.958;10.970;2023-03-16T14:01:44;101111.22;;;8.40;42.27
39823;BME280;25499;53.958;10.970;2023-03-16T14:04:11;101157.19;;;8.47;43.70
39823;BME280;25499;53.958;10.970;2023-03-16T14:06:40;101167.38;;;8.35;44.37
39823;BME280;25499;53.958;10.970;2023-03-16T14:09:17;101158.81;;;8.40;45.12
39823;BME280;25499;53.958;10.970;2023-03-16T14:11:45;101103.22;;;8.18;43.25
39823;BME280;25499;53.958;10.970;2023-03-16T14:14:14;101156.06;;;8.30;44.41
39823;BME280;25499;53.958;10.970;2023-03-16T14:16:41;101104.19;;;8.27;43.60
39823;BME280;25499;53.958;10.970;2023-03-16T14:21:42;101094.81;;;8.39;42.76
39823;BME280;25499;53.958;10.970;2023-03-16T14:26:47;101153.97;;;8.68;44.79
39823;BME280;25499;53.958;10.970;2023-03-16T14:29:19;101142.78;;;8.72;44.74
39823;BME280;25499;53.958;10.970;2023-03-16T14:31:45;101128.97;;;8.76;43.99
39823;BME280;25499;53.958;10.970;2023-03-16T14:34:29;101066.44;;;8.50;43.20
39823;BME280;25499;53.958;10.970;2023-03-16T14:37:15;101071.47;;;8.41;43.12
39823;BME280;25499;53.958;10.970;2023-03-16T14:39:44;101075.75;;;8.37;43.57
39823;BME280;25499;53.958;10.970;2023-03-16T14:42:29;101042.72;;;8.21;43.29
39823;BME280;25499;53.958;10.970;2023-03-16T14:44:57;101030.34;;;7.98;43.09
39823;BME280;25499;53.958;10.970;2023-03-16T14:47:27;101001.69;;;7.84;42.78
39823;BME280;25499;53.958;10.970;2023-03-16T14:49:56;101041.41;;;7.85;43.42
39823;BME280;25499;53.958;10.970;2023-03-16T14:52:25;101006.72;;;7.75;43.12
39823;BME280;25499;53.958;10.970;2023-03-16T14:54:52;101040.50;;;7.80;43.79
39823;BME280;25499;53.958;10.970;2023-03-16T14:57:19;101024.81;;;7.69;44.00
39823;BME280;25499;53.958;10.970;2023-03-16T14:59:46;100989.25;;;7.57;42.89
39823;BME280;25499;53.958;10.970;2023-03-16T15:02:40;101024.69;;;7.60;43.22
39823;BME280;25499;53.958;10.970;2023-03-16T15:05:08;101052.28;;;7.58;45.06
39823;BME280;25499;53.958;10.970;2023-03-16T15:07:37;101033.22;;;7.53;44.57
39823;BME280;25499;53.958;10.970;2023-03-16T15:12:46;101015.88;;;7.47;44.09
39823;BME280;25499;53.958;10.970;2023-03-16T15:15:22;100997.72;;;7.45;44.25
39823;BME280;25499;53.958;10.970;2023-03-16T15:17:49;101002.75;;;7.36;44.33
39823;BME280;25499;53.958;10.970;2023-03-16T15:20:21;101001.03;;;7.35;43.96
39823;BME280;25499;53.958;10.970;2023-03-16T15:22:50;100934.47;;;7.29;42.96
39823;BME280;25499;53.958;10.970;2023-03-16T15:25:39;100948.19;;;7.22;42.83
39823;BME280;25499;53.958;10.970;2023-03-16T15:28:15;100967.22;;;7.24;43.56
39823;BME280;25499;53.958;10.970;2023-03-16T15:30:43;100966.22;;;7.15;43.56
39823;BME280;25499;53.958;10.970;2023-03-16T15:33:11;100968.00;;;7.19;43.51
39823;BME280;25499;53.958;10.970;2023-03-16T15:35:37;100965.28;;;7.09;43.90
39823;BME280;25499;53.958;10.970;2023-03-16T15:38:06;100964.44;;;7.10;43.73
39823;BME280;25499;53.958;10.970;2023-03-16T15:40:36;100983.44;;;7.13;43.76
39823;BME280;25499;53.958;10.970;2023-03-16T15:43:08;100998.91;;;7.08;44.22
39823;BME280;25499;53.958;10.970;2023-03-16T15:45:33;100964.34;;;7.04;44.13
39823;BME280;25499;53.958;10.970;2023-03-16T15:47:59;100985.00;;;7.01;44.11
39823;BME280;25499;53.958;10.970;2023-03-16T15:50:24;100978.03;;;6.97;44.61
39823;BME280;25499;53.958;10.970;2023-03-16T15:52:55;101003.06;;;6.97;45.04
39823;BME280;25499;53.958;10.970;2023-03-16T15:55:23;101025.53;;;6.99;45.58
39823;BME280;25499;53.958;10.970;2023-03-16T15:57:56;101044.50;;;6.98;45.95
39823;BME280;25499;53.958;10.970;2023-03-16T16:02:52;101044.44;;;6.95;46.27
39823;BME280;25499;53.958;10.970;2023-03-16T16:05:18;101058.22;;;6.94;47.26
39823;BME280;25499;53.958;10.970;2023-03-16T16:07:43;101103.00;;;6.88;48.56
39823;BME280;25499;53.958;10.970;2023-03-16T16:10:12;101100.31;;;6.84;49.13
39823;BME280;25499;53.958;10.970;2023-03-16T16:12:37;101130.53;;;6.85;49.71
39823;BME280;25499;53.958;10.970;2023-03-16T16:15:11;101149.47;;;6.84;50.96
39823;BME280;25499;53.958;10.970;2023-03-16T16:17:41;101128.66;;;6.76;50.67
39823;BME280;25499;53.958;10.970;2023-03-16T16:20:18;101129.50;;;6.77;50.76
39823;BME280;25499;53.958;10.970;2023-03-16T16:22:45;101123.50;;;6.78;50.35
39823;BME280;25499;53.958;10.970;2023-03-16T16:25:12;101111.31;;;6.72;50.04
39823;BME280;25499;53.958;10.970;2023-03-16T16:27:38;101124.25;;;6.70;50.15
39823;BME280;25499;53.958;10.970;2023-03-16T16:30:25;101122.63;;;6.76;50.33
39823;BME280;25499;53.958;10.970;2023-03-16T16:32:52;101110.38;;;6.68;50.29
39823;BME280;25499;53.958;10.970;2023-03-16T16:35:24;101106.03;;;6.66;50.22
39823;BME280;25499;53.958;10.970;2023-03-16T16:37:50;101119.81;;;6.65;50.52
39823;BME280;25499;53.958;10.970;2023-03-16T16:40:20;101105.13;;;6.62;50.25
39823;BME280;25499;53.958;10.970;2023-03-16T16:42:48;101125.75;;;6.59;50.39
39823;BME280;25499;53.958;10.970;2023-03-16T16:45:20;101106.69;;;6.54;50.49
39823;BME280;25499;53.958;10.970;2023-03-16T16:47:51;101113.59;;;6.53;51.08
39823;BME280;25499;53.958;10.970;2023-03-16T16:50:26;101120.47;;;6.54;51.39
39823;BME280;25499;53.958;10.970;2023-03-16T16:52:52;101124.88;;;6.59;51.09
39823;BME280;25499;53.958;10.970;2023-03-16T16:55:20;101116.97;;;6.51;51.35
39823;BME280;25499;53.958;10.970;2023-03-16T16:57:47;101116.94;;;6.49;51.65
39823;BME280;25499;53.958;10.970;2023-03-16T17:00:24;101126.34;;;6.46;51.43
39823;BME280;25499;53.958;10.970;2023-03-16T17:02:52;101122.13;;;6.51;51.48
39823;BME280;25499;53.958;10.970;2023-03-16T17:05:21;101141.16;;;6.54;51.76
39823;BME280;25499;53.958;10.970;2023-03-16T17:07:47;101114.28;;;6.46;51.64
39823;BME280;25499;53.958;10.970;2023-03-16T17:10:35;101127.19;;;6.45;51.65
39823;BME280;25499;53.958;10.970;2023-03-16T17:12:59;101161.72;;;6.47;52.48
39823;BME280;25499;53.958;10.970;2023-03-16T17:15:27;101173.69;;;6.42;53.14
39823;BME280;25499;53.958;10.970;2023-03-16T17:18:08;101170.19;;;6.40;52.92
39823;BME280;25499;53.958;10.970;2023-03-16T17:20:34;101161.66;;;6.44;52.96
39823;BME280;25499;53.958;10.970;2023-03-16T17:23:00;101155.53;;;6.39;52.77
39823;BME280;25499;53.958;10.970;2023-03-16T17:25:26;101165.00;;;6.40;52.85
39823;BME280;25499;53.958;10.970;2023-03-16T17:27:53;101152.09;;;6.41;52.86
39823;BME280;25499;53.958;10.970;2023-03-16T17:30:24;101157.28;;;6.41;53.00
39823;BME280;25499;53.958;10.970;2023-03-16T17:32:52;101159.75;;;6.35;52.97
39823;BME280;25499;53.958;10.970;2023-03-16T17:35:19;101167.59;;;6.40;53.17
39823;BME280;25499;53.958;10.970;2023-03-16T17:37:46;101174.34;;;6.31;53.47
39823;BME280;25499;53.958;10.970;2023-03-16T17:40:22;101177.03;;;6.38;53.78
39823;BME280;25499;53.958;10.970;2023-03-16T17:42:50;101167.63;;;6.41;53.69
39823;BME280;25499;53.958;10.970;2023-03-16T17:45:20;101169.97;;;6.29;54.10
39823;BME280;25499;53.958;10.970;2023-03-16T17:47:47;101179.59;;;6.36;54.69
39823;BME280;25499;53.958;10.970;2023-03-16T17:50:23;101177.63;;;6.24;54.70
39823;BME280;25499;53.958;10.970;2023-03-16T17:52:52;101178.41;;;6.20;54.66
39823;BME280;25499;53.958;10.970;2023-03-16T17:55:19;101175.09;;;6.27;54.81
39823;BME280;25499;53.958;10.970;2023-03-16T17:57:48;101158.69;;;6.25;54.66
39823;BME280;25499;53.958;10.970;2023-03-16T18:02:55;101165.63;;;6.28;55.04
39823;BME280;25499;53.958;10.970;2023-03-16T18:05:30;101156.91;;;6.23;54.84
39823;BME280;25499;53.958;10.970;2023-03-16T18:08:26;101153.44;;;6.22;55.11
39823;BME280;25499;53.958;10.970;2023-03-16T18:10:58;101144.06;;;6.27;55.23
39823;BME280;25499;53.958;10.970;2023-03-16T18:13:35;101155.25;;;6.25;55.65
39823;BME280;25499;53.958;10.970;2023-03-16T18:16:03;101162.06;;;6.23;55.77
39823;BME280;25499;53.958;10.970;2023-03-16T18:18:32;101164.66;;;6.21;56.05
39823;BME280;25499;53.958;10.970;2023-03-16T18:20:59;101155.97;;;6.19;55.89
39823;BME280;25499;53.958;10.970;2023-03-16T18:23:31;101155.16;;;6.22;56.03
39823;BME280;25499;53.958;10.970;2023-03-16T18:25:58;101150.78;;;6.19;56.11
39823;BME280;25499;53.958;10.970;2023-03-16T18:28:31;101147.28;;;6.15;56.22
39823;BME280;25499;53.958;10.970;2023-03-16T18:30:58;101159.38;;;6.16;56.34
39823;BME280;25499;53.958;10.970;2023-03-16T18:35:50;101152.56;;;6.20;56.33
39823;BME280;25499;53.958;10.970;2023-03-16T18:38:26;101141.34;;;6.20;56.30
39823;BME280;25499;53.958;10.970;2023-03-16T18:40:54;101145.59;;;6.18;56.71
39823;BME280;25499;53.958;10.970;2023-03-16T18:43:19;101137.03;;;6.20;56.55
39823;BME280;25499;53.958;10.970;2023-03-16T18:45:45;101118.09;;;6.20;56.07
39823;BME280;25499;53.958;10.970;2023-03-16T18:48:32;101135.13;;;6.11;56.51
39823;BME280;25499;53.958;10.970;2023-03-16T18:50:58;101136.97;;;6.17;56.72
39823;BME280;25499;53.958;10.970;2023-03-16T18:53:26;101106.78;;;6.16;55.97
39823;BME280;25499;53.958;10.970;2023-03-16T18:55:52;101138.59;;;6.12;56.73
39823;BME280;25499;53.958;10.970;2023-03-16T18:58:20;101133.47;;;6.15;56.88
39823;BME280;25499;53.958;10.970;2023-03-16T19:00:53;101132.56;;;6.11;56.86
39823;BME280;25499;53.958;10.970;2023-03-16T19:03:30;101135.03;;;6.07;57.33
39823;BME280;25499;53.958;10.970;2023-03-16T19:05:59;101134.16;;;6.06;57.43
39823;BME280;25499;53.958;10.970;2023-03-16T19:08:29;101142.63;;;6.01;58.04
39823;BME280;25499;53.958;10.970;2023-03-16T19:10:56;101139.19;;;6.00;57.95
39823;BME280;25499;53.958;10.970;2023-03-16T19:13:24;101127.09;;;5.97;57.78
39823;BME280;25499;53.958;10.970;2023-03-16T19:15:52;101139.00;;;5.92;57.87
39823;BME280;25499;53.958;10.970;2023-03-16T19:18:18;101135.50;;;5.90;57.95
39823;BME280;25499;53.958;10.970;2023-03-16T19:20:46;101137.13;;;5.87;58.01
39823;BME280;25499;53.958;10.970;2023-03-16T19:23:17;101125.19;;;5.92;57.97
39823;BME280;25499;53.958;10.970;2023-03-16T19:25:44;101122.56;;;5.90;57.60
39823;BME280;25499;53.958;10.970;2023-03-16T19:28:16;101141.50;;;5.89;58.25
39823;BME280;25499;53.958;10.970;2023-03-16T19:30:44;101125.06;;;5.86;57.93
39823;BME280;25499;53.958;10.970;2023-03-16T19:33:20;101124.97;;;5.81;58.15
39823;BME280;25499;53.958;10.970;2023-03-16T19:35:47;101126.72;;;5.84;58.22
39823;BME280;25499;53.958;10.970;2023-03-16T19:38:13;101112.13;;;5.84;57.66
39823;BME280;25499;53.958;10.970;2023-03-16T19:40:39;101107.84;;;5.86;57.67
39823;BME280;25499;53.958;10.970;2023-03-16T19:43:09;101116.44;;;5.85;57.87
39823;BME280;25499;53.958;10.970;2023-03-16T19:45:37;101099.19;;;5.84;57.54
39823;BME280;25499;53.958;10.970;2023-03-16T19:48:10;101092.28;;;5.83;57.26
39823;BME280;25499;53.958;10.970;2023-03-16T19:50:37;101084.53;;;5.83;57.29
39823;BME280;25499;53.958;10.970;2023-03-16T19:53:04;101075.88;;;5.81;57.31
39823;BME280;25499;53.958;10.970;2023-03-16T19:55:30;101083.69;;;5.84;57.33
39823;BME280;25499;53.958;10.970;2023-03-16T19:58:02;101079.34;;;5.83;57.26
39823;BME280;25499;53.958;10.970;2023-03-16T20:00:32;101066.41;;;5.82;57.14
39823;BME280;25499;53.958;10.970;2023-03-16T20:02:58;101079.22;;;5.77;57.35
39823;BME280;25499;53.958;10.970;2023-03-16T20:05:26;101068.84;;;5.74;57.39
39823;BME280;25499;53.958;10.970;2023-03-16T20:07:52;101084.38;;;5.77;57.86
39823;BME280;25499;53.958;10.970;2023-03-16T20:10:22;101061.03;;;5.71;58.06
39823;BME280;25499;53.958;10.970;2023-03-16T20:12:53;101072.09;;;5.67;58.44
39823;BME280;25499;53.958;10.970;2023-03-16T20:15:20;101077.25;;;5.65;58.54
39823;BME280;25499;53.958;10.970;2023-03-16T20:17:47;101088.47;;;5.66;58.95
39823;BME280;25499;53.958;10.970;2023-03-16T20:20:27;101091.97;;;5.69;58.62
39823;BME280;25499;53.958;10.970;2023-03-16T20:22:53;101098.03;;;5.71;59.24
39823;BME280;25499;53.958;10.970;2023-03-16T20:25:22;101116.06;;;5.68;59.42
39823;BME280;25499;53.958;10.970;2023-03-16T20:27:57;101102.31;;;5.69;59.45
39823;BME280;25499;53.958;10.970;2023-03-16T20:30:26;101086.78;;;5.68;59.01
39823;BME280;25499;53.958;10.970;2023-03-16T20:32:51;101101.53;;;5.73;59.25
39823;BME280;25499;53.958;10.970;2023-03-16T20:35:27;101084.34;;;5.74;59.00
39823;BME280;25499;53.958;10.970;2023-03-16T20:37:53;101082.69;;;5.77;59.00
39823;BME280;25499;53.958;10.970;2023-03-16T20:40:19;101075.03;;;5.82;58.54
39823;BME280;25499;53.958;10.970;2023-03-16T20:42:46;101068.16;;;5.83;58.59
39823;BME280;25499;53.958;10.970;2023-03-16T20:47:43;101070.56;;;5.75;59.12
